Time;durP1;ratioP1;P1;durP2;ratioP2;P2;SDS_P1;SDS_P2;PMS_P1;PMS_P2;Temp;Humidity;BMP_temperature;BMP_pressure;BME280_temperature;BME280_humidity;BME280_pressure;Samples;Min_cycle;Max_cycle;Signal;HPM_P1;HPM_P2
2023/04/23 00:02:11;;;;;;;3.00;2.13;;;;;;;;;;5105089;27;92071;-66
2023/04/23 00:04:40;;;;;;;2.87;2.23;;;;;;;;;;5120602;27;91965;-66
2023/04/23 00:07:09;;;;;;;2.10;1.90;;;;;;;;;;5120926;27;95101;-66
2023/04/23 00:09:37;;;;;;;3.27;2.40;;;;;;;;;;5102629;27;93366;-66
2023/04/23 00:12:06;;;;;;;2.53;1.83;;;;;;;;;;5107450;27;93115;-65
2023/04/23 00:14:35;;;;;;;2.47;1.73;;;;;;;;;;5099385;27;92130;-66
2023/04/23 00:17:05;;;;;;;1.93;1.63;;;;;;;;;;5104153;27;94210;-66
2023/04/23 00:19:33;;;;;;;5.10;1.97;;;;;;;;;;5113100;27;92952;-66
2023/04/23 00:22:02;;;;;;;2.07;1.57;;;;;;;;;;5117814;27;92081;-66
2023/04/23 00:24:33;;;;;;;4.33;1.90;;;;;;;;;;5110895;27;92059;-66
2023/04/23 00:27:01;;;;;;;2.30;2.03;;;;;;;;;;5094412;27;94157;-66
2023/04/23 00:29:30;;;;;;;2.03;1.77;;;;;;;;;;5114210;27;93760;-65
2023/04/23 00:31:58;;;;;;;1.77;1.53;;;;;;;;;;5102048;27;92957;-65
2023/04/23 00:34:28;;;;;;;2.80;2.07;;;;;;;;;;5091328;27;93544;-65
2023/04/23 00:36:56;;;;;;;1.87;1.53;;;;;;;;;;5097766;27;94110;-66
2023/04/23 00:39:25;;;;;;;2.13;1.93;;;;;;;;;;5101322;27;92661;-65
2023/04/23 00:41:54;;;;;;;4.30;2.43;;;;;;;;;;5115487;27;92123;-66
2023/04/23 00:44:23;;;;;;;3.33;1.83;;;;;;;;;;5119499;27;92089;-66
2023/04/23 00:46:51;;;;;;;1.83;1.47;;;;;;;;;;5122438;27;94617;-66
2023/04/23 00:49:20;;;;;;;2.83;2.17;;;;;;;;;;5102652;27;93885;-66
2023/04/23 00:51:50;;;;;;;2.60;2.07;;;;;;;;;;5100561;27;91993;-66
2023/04/23 00:54:19;;;;;;;2.03;1.60;;;;;;;;;;5099732;27;92150;-66
2023/04/23 00:56:47;;;;;;;2.17;1.43;;;;;;;;;;5096644;27;95428;-66
2023/04/23 00:59:16;;;;;;;2.13;1.27;;;;;;;;;;5095392;27;94872;-66
2023/04/23 01:01:44;;;;;;;3.73;2.27;;;;;;;;;;5100595;27;92228;-66
2023/04/23 01:04:13;;;;;;;1.80;1.70;;;;;;;;;;5100035;27;92150;-66
2023/04/23 01:06:41;;;;;;;5.07;1.97;;;;;;;;;;5098069;27;92856;-66
2023/04/23 01:09:11;;;;;;;2.30;1.93;;;;;;;;;;5100160;27;93863;-66
2023/04/23 01:11:40;;;;;;;1.50;1.40;;;;;;;;;;5095547;27;92102;-66
2023/04/23 01:14:09;;;;;;;1.97;1.37;;;;;;;;;;5100845;27;91356;-66
2023/04/23 01:16:38;;;;;;;4.33;1.77;;;;;;;;;;5098797;27;94133;-65
2023/04/23 01:19:06;;;;;;;3.00;2.17;;;;;;;;;;5100056;27;93891;-66
2023/04/23 01:21:35;;;;;;;2.90;1.93;;;;;;;;;;5099457;27;92988;-66
2023/04/23 01:24:04;;;;;;;2.03;1.83;;;;;;;;;;5101010;27;92076;-65
2023/04/23 01:26:33;;;;;;;1.57;1.47;;;;;;;;;;5101622;27;94172;-65
2023/04/23 01:29:02;;;;;;;1.50;1.40;;;;;;;;;;5101150;27;93650;-65
2023/04/23 01:31:30;;;;;;;3.60;2.37;;;;;;;;;;5101720;27;92020;-66
2023/04/23 01:33:58;;;;;;;2.83;2.37;;;;;;;;;;5101551;27;92702;-67
2023/04/23 01:36:27;;;;;;;2.23;1.80;;;;;;;;;;5101134;27;93781;-66
2023/04/23 01:38:55;;;;;;;1.77;1.47;;;;;;;;;;5101665;27;93855;-66
2023/04/23 01:41:25;;;;;;;2.57;1.70;;;;;;;;;;5101789;27;92003;-66
2023/04/23 01:43:53;;;;;;;2.67;1.43;;;;;;;;;;5101326;27;92043;-66
2023/04/23 01:46:21;;;;;;;2.17;1.90;;;;;;;;;;5100604;27;95719;-66
2023/04/23 01:48:50;;;;;;;2.67;1.80;;;;;;;;;;5101088;27;95104;-66
2023/04/23 01:51:18;;;;;;;2.90;1.63;;;;;;;;;;5101556;27;92173;-66
2023/04/23 01:53:47;;;;;;;2.17;1.73;;;;;;;;;;5101325;27;91983;-66
2023/04/23 01:56:15;;;;;;;3.20;1.90;;;;;;;;;;5100936;27;94239;-66
2023/04/23 01:58:45;;;;;;;1.83;1.60;;;;;;;;;;5100888;27;93944;-66
2023/04/23 02:01:13;;;;;;;2.87;1.90;;;;;;;;;;5101734;27;92616;-66
2023/04/23 02:03:42;;;;;;;2.47;1.60;;;;;;;;;;5101442;27;91202;-66
2023/04/23 02:06:10;;;;;;;4.20;2.13;;;;;;;;;;5101038;27;93224;-66
2023/04/23 02:08:39;;;;;;;2.70;1.70;;;;;;;;;;5101600;27;93910;-66
2023/04/23 02:11:08;;;;;;;2.73;1.53;;;;;;;;;;5101221;27;93051;-65
2023/04/23 02:13:36;;;;;;;2.07;1.43;;;;;;;;;;5101072;27;92201;-66
2023/04/23 02:16:06;;;;;;;1.60;1.40;;;;;;;;;;5100324;27;91941;-66
2023/04/23 02:18:35;;;;;;;2.27;1.60;;;;;;;;;;5100201;27;92742;-66
2023/04/23 02:21:05;;;;;;;3.53;2.43;;;;;;;;;;5101126;27;91813;-66
2023/04/23 02:23:33;;;;;;;2.07;1.87;;;;;;;;;;5101165;27;92019;-65
2023/04/23 02:26:01;;;;;;;1.77;1.43;;;;;;;;;;5100470;27;94274;-66
2023/04/23 02:28:30;;;;;;;1.67;1.57;;;;;;;;;;5101002;27;93656;-66
2023/04/23 02:30:58;;;;;;;2.37;1.63;;;;;;;;;;5101381;27;92086;-65
2023/04/23 02:33:28;;;;;;;1.67;1.20;;;;;;;;;;5100687;27;92214;-65
2023/04/23 02:35:56;;;;;;;1.43;1.33;;;;;;;;;;5087730;27;95063;-65
2023/04/23 02:38:25;;;;;;;1.40;1.30;;;;;;;;;;5092612;27;94830;-66
2023/04/23 02:40:53;;;;;;;2.93;1.50;;;;;;;;;;5097456;27;92038;-66
2023/04/23 02:43:21;;;;;;;1.93;1.83;;;;;;;;;;5085580;27;91968;-66
2023/04/23 02:45:50;;;;;;;2.90;1.50;;;;;;;;;;5100148;27;92166;-66
2023/04/23 02:48:18;;;;;;;2.67;1.90;;;;;;;;;;5111330;27;94236;-66
2023/04/23 02:50:48;;;;;;;1.60;1.40;;;;;;;;;;5105864;27;92068;-65
2023/04/23 02:53:16;;;;;;;1.60;1.40;;;;;;;;;;5095948;27;91444;-66
2023/04/23 02:55:44;;;;;;;1.90;1.50;;;;;;;;;;5091502;27;96897;-65
2023/04/23 02:58:13;;;;;;;3.03;1.73;;;;;;;;;;5096067;27;93865;-67
2023/04/23 03:00:41;;;;;;;2.37;1.73;;;;;;;;;;5118463;27;92852;-65
2023/04/23 03:03:09;;;;;;;2.80;1.67;;;;;;;;;;5118786;27;92032;-65
2023/04/23 03:05:40;;;;;;;2.10;1.33;;;;;;;;;;5106501;27;94103;-65
2023/04/23 03:08:09;;;;;;;2.30;1.70;;;;;;;;;;5113339;27;93219;-65
2023/04/23 03:10:38;;;;;;;1.47;1.37;;;;;;;;;;5102110;27;91997;-65
2023/04/23 03:13:06;;;;;;;1.30;1.20;;;;;;;;;;5113490;27;92576;-65
2023/04/23 03:15:34;;;;;;;1.73;1.50;;;;;;;;;;5084434;27;94150;-65
2023/04/23 03:18:04;;;;;;;1.70;1.40;;;;;;;;;;5102298;27;93755;-66
2023/04/23 03:20:33;;;;;;;1.60;1.50;;;;;;;;;;5101876;27;91941;-65
2023/04/23 03:23:01;;;;;;;2.87;1.37;;;;;;;;;;5097383;27;92085;-66
2023/04/23 03:25:31;;;;;;;1.17;1.07;;;;;;;;;;5101152;27;95043;-66
2023/04/23 03:27:59;;;;;;;1.60;1.50;;;;;;;;;;5112768;27;94711;-65
2023/04/23 03:30:30;;;;;;;2.67;2.00;;;;;;;;;;5105510;27;91999;-66
2023/04/23 03:32:58;;;;;;;2.20;1.80;;;;;;;;;;5103268;27;92024;-65
2023/04/23 03:35:26;;;;;;;3.57;1.67;;;;;;;;;;5102802;27;94072;-65
2023/04/23 03:37:55;;;;;;;1.97;1.60;;;;;;;;;;5103493;27;94171;-65
2023/04/23 03:40:23;;;;;;;1.43;1.20;;;;;;;;;;5103430;27;92050;-65
2023/04/23 03:42:53;;;;;;;1.80;1.40;;;;;;;;;;5098089;27;93234;-65
2023/04/23 03:45:21;;;;;;;1.43;1.33;;;;;;;;;;5082848;27;93989;-68
2023/04/23 03:47:50;;;;;;;1.73;0.87;;;;;;;;;;5094175;27;93947;-67
2023/04/23 03:50:18;;;;;;;2.33;1.27;;;;;;;;;;5102999;27;92777;-65
2023/04/23 03:52:46;;;;;;;1.27;1.17;;;;;;;;;;5116741;27;91866;-65
2023/04/23 03:55:15;;;;;;;1.50;1.40;;;;;;;;;;5123879;27;94083;-65
2023/04/23 03:57:43;;;;;;;2.10;1.90;;;;;;;;;;5101422;27;93754;-66
2023/04/23 04:00:14;;;;;;;1.87;1.60;;;;;;;;;;5101210;27;92093;-65
2023/04/23 04:02:42;;;;;;;1.43;1.30;;;;;;;;;;5097009;27;93509;-65
2023/04/23 04:05:11;;;;;;;1.30;1.10;;;;;;;;;;5101133;27;94161;-65
2023/04/23 04:07:40;;;;;;;1.20;1.10;;;;;;;;;;5101536;27;93764;-65
2023/04/23 04:10:09;;;;;;;1.13;1.10;;;;;;;;;;5103289;27;92104;-65
2023/04/23 04:12:37;;;;;;;1.67;1.47;;;;;;;;;;5108407;27;92266;-65
2023/04/23 04:15:06;;;;;;;2.07;1.80;;;;;;;;;;5097608;27;95277;-65
2023/04/23 04:17:35;;;;;;;6.80;1.83;;;;;;;;;;5106389;27;94711;-67
2023/04/23 04:20:05;;;;;;;1.60;1.20;;;;;;;;;;5097427;27;92087;-67
2023/04/23 04:22:34;;;;;;;2.43;1.50;;;;;;;;;;5107154;27;92075;-66
2023/04/23 04:25:02;;;;;;;2.40;1.80;;;;;;;;;;5101746;27;94189;-66
2023/04/23 04:27:32;;;;;;;1.30;1.20;;;;;;;;;;5109014;27;94114;-66
2023/04/23 04:30:01;;;;;;;1.47;1.23;;;;;;;;;;5116452;27;92113;-66
2023/04/23 04:32:29;;;;;;;1.80;1.27;;;;;;;;;;5109685;27;91318;-67
2023/04/23 04:34:59;;;;;;;1.60;1.50;;;;;;;;;;5114259;27;94359;-67
2023/04/23 04:37:28;;;;;;;2.10;1.43;;;;;;;;;;5116568;27;93865;-67
2023/04/23 04:39:56;;;;;;;1.53;1.37;;;;;;;;;;5120623;27;93017;-67
2023/04/23 04:42:24;;;;;;;1.43;1.27;;;;;;;;;;5105279;27;92036;-67
2023/04/23 04:44:53;;;;;;;1.73;1.40;;;;;;;;;;5101535;27;94277;-67
2023/04/23 04:47:21;;;;;;;2.23;1.60;;;;;;;;;;5112178;27;93847;-67
2023/04/23 04:49:49;;;;;;;2.13;1.43;;;;;;;;;;5115526;27;91929;-65
2023/04/23 04:52:19;;;;;;;1.97;1.43;;;;;;;;;;5113587;27;92106;-66
2023/04/23 04:54:47;;;;;;;1.83;1.23;;;;;;;;;;5105652;27;94365;-65
2023/04/23 04:57:16;;;;;;;2.27;1.60;;;;;;;;;;5108658;27;93625;-65
2023/04/23 04:59:44;;;;;;;2.43;1.40;;;;;;;;;;5102413;27;92021;-66
2023/04/23 05:02:13;;;;;;;2.53;1.40;;;;;;;;;;5111259;27;91997;-66
2023/04/23 05:04:41;;;;;;;1.30;1.20;;;;;;;;;;5101093;27;94049;-66
2023/04/23 05:07:10;;;;;;;1.40;1.30;;;;;;;;;;5097732;27;94751;-66
2023/04/23 05:09:40;;;;;;;1.70;1.50;;;;;;;;;;5086664;27;92007;-66
2023/04/23 05:12:12;;;;;;;1.23;1.13;;;;;;;;;;5104708;27;92095;-66
2023/04/23 05:14:40;;;;;;;2.07;1.10;;;;;;;;;;5088340;27;94321;-66
2023/04/23 05:17:08;;;;;;;1.37;1.13;;;;;;;;;;5103591;27;93977;-66
2023/04/23 05:19:37;;;;;;;1.63;1.53;;;;;;;;;;5102839;27;92123;-66
2023/04/23 05:22:06;;;;;;;4.50;1.20;;;;;;;;;;5104443;27;91465;-66
2023/04/23 05:24:35;;;;;;;2.67;1.33;;;;;;;;;;5100134;27;94039;-65
2023/04/23 05:27:05;;;;;;;1.63;1.40;;;;;;;;;;5086001;27;93755;-66
2023/04/23 05:29:33;;;;;;;1.27;1.10;;;;;;;;;;5074273;27;93960;-66
2023/04/23 05:32:01;;;;;;;1.80;1.70;;;;;;;;;;5090062;27;93903;-65
2023/04/23 05:34:30;;;;;;;1.40;1.20;;;;;;;;;;5078824;27;94145;-65
2023/04/23 05:36:58;;;;;;;1.13;1.03;;;;;;;;;;5078517;27;93756;-65
2023/04/23 05:39:27;;;;;;;1.50;1.40;;;;;;;;;;5098843;27;92170;-65
2023/04/23 05:41:56;;;;;;;1.27;1.07;;;;;;;;;;5103286;27;92367;-65
2023/04/23 05:44:26;;;;;;;1.30;1.20;;;;;;;;;;5109935;27;94158;-65
2023/04/23 05:46:54;;;;;;;1.30;1.20;;;;;;;;;;5096715;27;93879;-65
2023/04/23 05:49:23;;;;;;;1.40;1.30;;;;;;;;;;5122094;27;92165;-65
2023/04/23 05:51:51;;;;;;;1.20;1.10;;;;;;;;;;5100324;27;92088;-65
2023/04/23 05:54:20;;;;;;;2.13;1.40;;;;;;;;;;5114109;27;95462;-65
2023/04/23 05:56:49;;;;;;;2.00;1.80;;;;;;;;;;5101506;27;94808;-65
2023/04/23 05:59:17;;;;;;;2.20;1.90;;;;;;;;;;5101509;27;92337;-65
2023/04/23 06:01:47;;;;;;;1.57;1.33;;;;;;;;;;5097620;27;92168;-65
2023/04/23 06:04:15;;;;;;;3.90;2.10;;;;;;;;;;5113128;27;94243;-65
2023/04/23 06:06:44;;;;;;;1.67;1.57;;;;;;;;;;5097934;27;93696;-64
2023/04/23 06:09:12;;;;;;;1.43;1.33;;;;;;;;;;5103670;27;92078;-66
2023/04/23 06:11:41;;;;;;;1.70;1.60;;;;;;;;;;5093914;27;91299;-66
2023/04/23 06:14:09;;;;;;;3.53;1.83;;;;;;;;;;5101081;27;94078;-66
2023/04/23 06:16:37;;;;;;;1.30;1.20;;;;;;;;;;5080270;27;93850;-66
2023/04/23 06:19:07;;;;;;;2.20;1.80;;;;;;;;;;5114851;27;92694;-65
2023/04/23 06:21:36;;;;;;;2.93;2.20;;;;;;;;;;5119253;27;92859;-67
2023/04/23 06:24:04;;;;;;;1.60;1.50;;;;;;;;;;5108041;27;93994;-68
2023/04/23 06:26:32;;;;;;;1.60;1.50;;;;;;;;;;5102138;27;93839;-68
2023/04/23 06:29:01;;;;;;;2.23;1.80;;;;;;;;;;5108264;27;92113;-69
2023/04/23 06:31:29;;;;;;;3.40;2.40;;;;;;;;;;5100956;27;91977;-68
2023/04/23 06:33:57;;;;;;;2.80;1.60;;;;;;;;;;5096184;27;94214;-67
2023/04/23 06:36:27;;;;;;;1.73;1.40;;;;;;;;;;5093206;27;93843;-69
2023/04/23 06:38:55;;;;;;;1.63;1.20;;;;;;;;;;5098787;27;93798;-69
2023/04/23 06:41:24;;;;;;;3.27;1.93;;;;;;;;;;5098872;27;92083;-69
2023/04/23 06:43:52;;;;;;;1.97;1.07;;;;;;;;;;5112683;27;95100;-69
2023/04/23 06:46:21;;;;;;;3.43;1.60;;;;;;;;;;5108524;27;94896;-66
2023/04/23 06:48:49;;;;;;;1.83;1.40;;;;;;;;;;5100565;27;92089;-70
2023/04/23 06:51:17;;;;;;;1.30;1.20;;;;;;;;;;5088984;27;92246;-70
2023/04/23 06:53:47;;;;;;;1.90;1.70;;;;;;;;;;5094384;27;94101;-71
2023/04/23 06:56:16;;;;;;;1.90;1.37;;;;;;;;;;5098944;27;93942;-70
2023/04/23 06:58:44;;;;;;;2.83;1.73;;;;;;;;;;5101661;27;92040;-71
2023/04/23 07:01:12;;;;;;;2.20;1.63;;;;;;;;;;5095141;27;91714;-71
2023/04/23 07:03:43;;;;;;;2.37;1.70;;;;;;;;;;5094913;27;94114;-71
2023/04/23 07:06:12;;;;;;;2.70;1.77;;;;;;;;;;5093710;27;95760;-70
2023/04/23 07:08:41;;;;;;;1.73;1.33;;;;;;;;;;5096628;27;92994;-71
2023/04/23 07:11:11;;;;;;;1.70;1.33;;;;;;;;;;5097888;27;92274;-71
2023/04/23 07:13:39;;;;;;;4.30;1.90;;;;;;;;;;5101086;27;94100;-71
2023/04/23 07:16:08;;;;;;;2.07;1.67;;;;;;;;;;5096006;27;93816;-69
2023/04/23 07:18:36;;;;;;;3.40;1.90;;;;;;;;;;5096602;27;92164;-70
2023/04/23 07:21:05;;;;;;;5.90;2.40;;;;;;;;;;5088461;27;92061;-71
2023/04/23 07:23:33;;;;;;;3.50;1.60;;;;;;;;;;5102573;27;94190;-69
2023/04/23 07:26:01;;;;;;;2.13;1.67;;;;;;;;;;5097849;27;94399;-72
2023/04/23 07:28:31;;;;;;;1.53;1.43;;;;;;;;;;5103672;27;92474;-71
2023/04/23 07:31:00;;;;;;;2.67;1.80;;;;;;;;;;5102305;27;92176;-71
2023/04/23 07:33:29;;;;;;;2.07;1.87;;;;;;;;;;5123651;27;94034;-71
2023/04/23 07:35:57;;;;;;;2.67;1.70;;;;;;;;;;5104254;27;94714;-72
2023/04/23 07:38:26;;;;;;;2.13;1.53;;;;;;;;;;5103612;27;91982;-72
2023/04/23 07:40:54;;;;;;;3.80;1.90;;;;;;;;;;5109686;27;92211;-72
2023/04/23 07:43:22;;;;;;;2.10;1.77;;;;;;;;;;5103113;27;94352;-71
2023/04/23 07:45:52;;;;;;;1.77;1.63;;;;;;;;;;5108325;27;93929;-70
2023/04/23 07:48:21;;;;;;;2.00;1.63;;;;;;;;;;5102958;27;92047;-69
2023/04/23 07:50:49;;;;;;;2.13;1.70;;;;;;;;;;5112237;27;91299;-69
2023/04/23 07:53:17;;;;;;;2.40;1.53;;;;;;;;;;5123625;27;94043;-70
2023/04/23 07:55:46;;;;;;;1.60;1.40;;;;;;;;;;5114962;27;93804;-72
2023/04/23 07:58:14;;;;;;;1.87;1.67;;;;;;;;;;5102703;27;92907;-72
2023/04/23 08:00:43;;;;;;;1.80;1.10;;;;;;;;;;5106809;27;93414;-72
2023/04/23 08:03:13;;;;;;;3.27;1.30;;;;;;;;;;5088554;27;94240;-71
2023/04/23 08:05:41;;;;;;;1.20;1.13;;;;;;;;;;5091154;27;95765;-70
2023/04/23 08:08:11;;;;;;;1.90;1.63;;;;;;;;;;5098569;27;92174;-70
2023/04/23 08:10:40;;;;;;;2.37;1.23;;;;;;;;;;5090961;27;91947;-70
2023/04/23 08:13:08;;;;;;;1.93;1.77;;;;;;;;;;5085131;27;95091;-62
2023/04/23 08:15:36;;;;;;;1.70;1.60;;;;;;;;;;5090896;27;93783;-61
2023/04/23 08:18:05;;;;;;;2.77;1.73;;;;;;;;;;5082638;27;92218;-59
2023/04/23 08:20:35;;;;;;;1.67;1.57;;;;;;;;;;5084053;27;92099;-59
2023/04/23 08:23:03;;;;;;;2.10;1.57;;;;;;;;;;5100433;27;95283;-59
2023/04/23 08:25:33;;;;;;;1.20;1.13;;;;;;;;;;5099980;27;94877;-60
2023/04/23 08:28:02;;;;;;;1.93;1.50;;;;;;;;;;5100353;27;92091;-60
2023/04/23 08:30:31;;;;;;;1.20;0.90;;;;;;;;;;5096462;27;92263;-63
2023/04/23 08:32:59;;;;;;;1.10;1.00;;;;;;;;;;5096491;27;93888;-65
2023/04/23 08:35:27;;;;;;;2.70;1.07;;;;;;;;;;5090536;27;94161;-63
2023/04/23 08:37:57;;;;;;;1.20;1.00;;;;;;;;;;5098418;27;93134;-62
2023/04/23 08:40:26;;;;;;;2.20;1.10;;;;;;;;;;5110573;27;91687;-62
2023/04/23 08:42:55;;;;;;;5.07;1.07;;;;;;;;;;5081710;27;94066;-62
2023/04/23 08:45:25;;;;;;;1.00;0.83;;;;;;;;;;5083467;27;93745;-62
2023/04/23 08:47:53;;;;;;;1.07;1.00;;;;;;;;;;5080917;27;93532;-62
2023/04/23 08:50:23;;;;;;;2.53;1.40;;;;;;;;;;5082768;27;92150;-62
2023/04/23 08:52:51;;;;;;;2.27;1.33;;;;;;;;;;5081257;27;94382;-63
2023/04/23 08:55:21;;;;;;;1.67;1.07;;;;;;;;;;5095303;27;94350;-62
2023/04/23 08:57:49;;;;;;;1.43;0.90;;;;;;;;;;5092012;27;92183;-62
2023/04/23 09:00:18;;;;;;;1.20;1.10;;;;;;;;;;5093376;27;92035;-62
2023/04/23 09:02:47;;;;;;;1.00;0.90;;;;;;;;;;5106525;27;92933;-62
2023/04/23 09:05:16;;;;;;;1.50;1.23;;;;;;;;;;5094381;27;92720;-62
2023/04/23 09:07:44;;;;;;;0.83;0.83;;;;;;;;;;5085795;27;92267;-62
2023/04/23 09:10:13;;;;;;;1.37;1.07;;;;;;;;;;5101005;27;92122;-62
2023/04/23 09:12:46;;;;;;;0.80;0.70;;;;;;;;;;5099936;27;94906;-62
2023/04/23 09:15:15;;;;;;;1.40;0.90;;;;;;;;;;5099565;27;95169;-62
2023/04/23 09:17:44;;;;;;;2.13;0.87;;;;;;;;;;5099602;27;92049;-62
2023/04/23 09:20:13;;;;;;;6.20;1.03;;;;;;;;;;5099655;27;92028;-62
2023/04/23 09:22:42;;;;;;;0.83;0.70;;;;;;;;;;5100357;27;94096;-62
2023/04/23 09:25:14;;;;;;;3.13;1.10;;;;;;;;;;5091815;27;94332;-62
2023/04/23 09:27:43;;;;;;;0.73;0.70;;;;;;;;;;5112113;27;92250;-62
2023/04/23 09:30:13;;;;;;;2.20;1.03;;;;;;;;;;5119105;27;91229;-61
2023/04/23 09:32:42;;;;;;;1.10;0.90;;;;;;;;;;5090919;27;94347;-62
2023/04/23 09:35:14;;;;;;;1.33;1.00;;;;;;;;;;5078833;27;93796;-62
2023/04/23 09:37:42;;;;;;;0.97;0.60;;;;;;;;;;5079489;27;93049;-62
2023/04/23 09:40:11;;;;;;;1.73;1.00;;;;;;;;;;5080416;27;92444;-62
2023/04/23 09:42:39;;;;;;;0.73;0.73;;;;;;;;;;5080064;27;94198;-62
2023/04/23 09:45:10;;;;;;;1.27;0.90;;;;;;;;;;5079744;27;93913;-62
2023/04/23 09:47:40;;;;;;;0.60;0.60;;;;;;;;;;5084753;27;92596;-62
2023/04/23 09:50:09;;;;;;;1.00;0.70;;;;;;;;;;5089010;27;92101;-62
2023/04/23 09:52:39;;;;;;;0.70;0.70;;;;;;;;;;5118180;27;94184;-62
2023/04/23 09:55:08;;;;;;;1.43;0.57;;;;;;;;;;5118147;27;93915;-61
2023/04/23 09:57:37;;;;;;;0.70;0.63;;;;;;;;;;5100974;27;92112;-61
2023/04/23 10:00:13;;;;;;;0.73;0.73;;;;;;;;;;5101418;27;92033;-62
2023/04/23 10:02:50;;;;;;;3.17;1.33;;;;;;;;;;5100301;27;95233;-62
2023/04/23 10:05:20;;;;;;;0.70;0.70;;;;;;;;;;5100795;27;94746;-61
2023/04/23 10:07:53;;;;;;;2.07;1.70;;;;;;;;;;5101071;27;92052;-62
2023/04/23 10:10:21;;;;;;;1.90;0.73;;;;;;;;;;5101209;27;91984;-62
2023/04/23 10:12:49;;;;;;;1.70;0.80;;;;;;;;;;5101067;27;93130;-62
2023/04/23 10:15:22;;;;;;;2.23;0.83;;;;;;;;;;5100176;27;93781;-62
2023/04/23 10:17:52;;;;;;;0.70;0.70;;;;;;;;;;5101923;27;91752;-61
2023/04/23 10:20:21;;;;;;;0.90;0.77;;;;;;;;;;5101636;27;91207;-61
2023/04/23 10:22:49;;;;;;;0.70;0.70;;;;;;;;;;5099599;27;94265;-62
2023/04/23 10:25:18;;;;;;;1.03;0.80;;;;;;;;;;5099612;27;93820;-61
2023/04/23 10:27:46;;;;;;;1.03;0.90;;;;;;;;;;5121401;27;93007;-61
2023/04/23 10:30:21;;;;;;;0.70;0.70;;;;;;;;;;5108867;27;92134;-62
2023/04/23 10:32:52;;;;;;;0.50;0.50;;;;;;;;;;5099878;27;94237;-62
2023/04/23 10:35:20;;;;;;;1.07;0.90;;;;;;;;;;5099485;27;92592;-62
2023/04/23 10:37:48;;;;;;;0.50;0.50;;;;;;;;;;5088272;27;92066;-62
2023/04/23 10:40:20;;;;;;;2.30;0.60;;;;;;;;;;5101223;27;92049;-62
2023/04/23 10:42:49;;;;;;;0.63;0.57;;;;;;;;;;5103388;27;96744;-62
2023/04/23 10:45:17;;;;;;;1.23;0.80;;;;;;;;;;5096785;27;93942;-62
2023/04/23 10:47:49;;;;;;;0.70;0.57;;;;;;;;;;5097698;27;92239;-62
2023/04/23 10:50:23;;;;;;;0.50;0.50;;;;;;;;;;5104259;27;92123;-62
2023/04/23 10:52:52;;;;;;;0.83;0.83;;;;;;;;;;5098702;27;95212;-62
2023/04/23 10:55:21;;;;;;;1.03;0.77;;;;;;;;;;5104626;27;94826;-62
2023/04/23 10:57:59;;;;;;;0.83;0.70;;;;;;;;;;5124854;27;92065;-62
2023/04/23 11:00:30;;;;;;;2.43;0.70;;;;;;;;;;5115869;27;92069;-62
2023/04/23 11:02:58;;;;;;;0.90;0.70;;;;;;;;;;5105197;27;94190;-62
2023/04/23 11:05:28;;;;;;;0.60;0.60;;;;;;;;;;5101568;27;93732;-62
2023/04/23 11:08:02;;;;;;;2.40;1.00;;;;;;;;;;5113971;27;92973;-62
2023/04/23 11:10:52;;;;;;;1.80;0.70;;;;;;;;;;5122397;27;91249;-62
2023/04/23 11:13:21;;;;;;;0.67;0.67;;;;;;;;;;5091479;27;94080;-64
2023/04/23 11:15:49;;;;;;;0.90;0.50;;;;;;;;;;5081507;27;93908;-61
2023/04/23 11:18:18;;;;;;;1.80;0.87;;;;;;;;;;5081753;27;93012;-63
2023/04/23 11:20:49;;;;;;;1.40;0.87;;;;;;;;;;5082168;27;91902;-63
2023/04/23 11:23:31;;;;;;;0.60;0.57;;;;;;;;;;5085492;27;94136;-63
2023/04/23 11:25:59;;;;;;;2.40;1.20;;;;;;;;;;5096739;27;93883;-63
2023/04/23 11:28:28;;;;;;;1.80;1.50;;;;;;;;;;5098640;27;92493;-61
2023/04/23 11:30:56;;;;;;;1.17;1.03;;;;;;;;;;5103894;27;92145;-64
2023/04/23 11:33:25;;;;;;;2.03;1.30;;;;;;;;;;5086312;27;94190;-63
2023/04/23 11:35:55;;;;;;;1.37;0.90;;;;;;;;;;5082796;27;93957;-63
2023/04/23 11:38:23;;;;;;;2.43;2.10;;;;;;;;;;5099682;27;92209;-63
2023/04/23 11:40:52;;;;;;;2.97;1.50;;;;;;;;;;5098242;27;92400;-63
2023/04/23 11:43:21;;;;;;;5.00;1.70;;;;;;;;;;5082541;27;94983;-63
2023/04/23 11:45:49;;;;;;;1.83;1.17;;;;;;;;;;5080934;27;94612;-63
2023/04/23 11:48:18;;;;;;;0.93;0.90;;;;;;;;;;5088870;27;93419;-63
2023/04/23 11:50:46;;;;;;;1.60;1.37;;;;;;;;;;5078981;27;92674;-63
2023/04/23 11:53:17;;;;;;;1.07;1.00;;;;;;;;;;5096292;27;92381;-63
2023/04/23 11:55:45;;;;;;;1.87;1.20;;;;;;;;;;5099263;27;93801;-63
2023/04/23 11:58:14;;;;;;;3.40;1.27;;;;;;;;;;5090878;27;94103;-63
2023/04/23 12:00:42;;;;;;;1.73;1.03;;;;;;;;;;5088058;27;91986;-63
2023/04/23 12:03:12;;;;;;;3.50;0.97;;;;;;;;;;5081329;27;94046;-63
2023/04/23 12:05:42;;;;;;;1.33;0.90;;;;;;;;;;5084395;27;93796;-61
2023/04/23 12:08:11;;;;;;;3.83;1.90;;;;;;;;;;5081390;27;93015;-61
2023/04/23 12:10:44;;;;;;;2.47;0.93;;;;;;;;;;5082531;27;92057;-61
2023/04/23 12:13:16;;;;;;;3.67;1.43;;;;;;;;;;5082720;27;92962;-62
2023/04/23 12:15:45;;;;;;;3.53;1.13;;;;;;;;;;5081782;27;93831;-62
2023/04/23 12:18:14;;;;;;;1.80;0.93;;;;;;;;;;5097472;27;92100;-63
2023/04/23 12:20:42;;;;;;;3.33;0.80;;;;;;;;;;5099123;27;91906;-63
2023/04/23 12:23:11;;;;;;;1.63;0.93;;;;;;;;;;5085113;27;94209;-62
2023/04/23 12:25:40;;;;;;;2.27;0.90;;;;;;;;;;5082701;27;93753;-62
2023/04/23 12:28:10;;;;;;;1.77;1.20;;;;;;;;;;5096573;27;92706;-64
2023/04/23 12:30:43;;;;;;;5.70;1.17;;;;;;;;;;5101993;27;92017;-64
2023/04/23 12:33:11;;;;;;;6.53;1.07;;;;;;;;;;5097392;27;95063;-64
2023/04/23 12:35:40;;;;;;;8.37;1.63;;;;;;;;;;5080689;27;94808;-64
2023/04/23 12:38:09;;;;;;;3.13;1.07;;;;;;;;;;5098794;27;92090;-64
2023/04/23 12:40:37;;;;;;;1.13;0.80;;;;;;;;;;5101760;27;92032;-64
2023/04/23 12:43:05;;;;;;;2.90;0.90;;;;;;;;;;5100569;27;94171;-65
2023/04/23 12:45:38;;;;;;;1.37;1.10;;;;;;;;;;5099259;27;92758;-64
2023/04/23 12:48:07;;;;;;;11.67;1.30;;;;;;;;;;5100957;27;92054;-68
2023/04/23 12:50:36;;;;;;;6.73;1.47;;;;;;;;;;5100389;27;91380;-68
2023/04/23 12:53:05;;;;;;;2.13;1.30;;;;;;;;;;5092082;27;94420;-71
2023/04/23 12:55:33;;;;;;;2.90;1.27;;;;;;;;;;5101887;27;93768;-70
2023/04/23 12:58:02;;;;;;;6.70;1.13;;;;;;;;;;5098745;27;93151;-66
2023/04/23 13:00:30;;;;;;;1.20;0.73;;;;;;;;;;5099458;27;93232;-66
2023/04/23 13:03:00;;;;;;;1.97;1.03;;;;;;;;;;5098534;27;94151;-67
2023/04/23 13:05:30;;;;;;;2.20;1.13;;;;;;;;;;5079858;27;94035;-68
2023/04/23 13:07:59;;;;;;;3.70;0.90;;;;;;;;;;5088124;27;92038;-67
2023/04/23 13:10:29;;;;;;;7.83;0.97;;;;;;;;;;5099001;27;92061;-69
2023/04/23 13:12:58;;;;;;;1.13;0.90;;;;;;;;;;5100263;27;94119;-69
2023/04/23 13:15:26;;;;;;;1.03;0.77;;;;;;;;;;5084977;27;94087;-69
2023/04/23 13:17:54;;;;;;;1.80;0.73;;;;;;;;;;5087586;27;92195;-69
2023/04/23 13:20:25;;;;;;;4.27;1.03;;;;;;;;;;5102039;27;91907;-69
2023/04/23 13:22:54;;;;;;;2.67;1.00;;;;;;;;;;5091797;27;95067;-70
2023/04/23 13:25:23;;;;;;;1.33;0.90;;;;;;;;;;5100510;27;94992;-70
2023/04/23 13:27:51;;;;;;;5.90;1.27;;;;;;;;;;5094642;27;92589;-70
2023/04/23 13:30:19;;;;;;;1.63;1.07;;;;;;;;;;5079960;27;92250;-68
2023/04/23 13:32:48;;;;;;;3.60;1.27;;;;;;;;;;5079673;27;94122;-69
2023/04/23 13:35:16;;;;;;;1.80;1.13;;;;;;;;;;5080665;27;94327;-68
2023/04/23 13:37:46;;;;;;;3.60;1.30;;;;;;;;;;5080217;27;92150;-69
2023/04/23 13:40:15;;;;;;;1.10;0.83;;;;;;;;;;5102168;27;91376;-68
2023/04/23 13:42:43;;;;;;;2.93;1.47;;;;;;;;;;5102234;27;94123;-68
2023/04/23 13:45:12;;;;;;;1.97;1.47;;;;;;;;;;5105840;27;93444;-69
2023/04/23 13:47:42;;;;;;;2.60;1.10;;;;;;;;;;5100930;27;92933;-68
2023/04/23 13:50:10;;;;;;;2.37;1.27;;;;;;;;;;5101581;27;92046;-69
2023/04/23 13:52:39;;;;;;;2.23;1.00;;;;;;;;;;5100645;27;94173;-68
2023/04/23 13:55:09;;;;;;;1.57;1.20;;;;;;;;;;5101180;27;93690;-68
2023/04/23 13:57:38;;;;;;;1.23;1.00;;;;;;;;;;5100297;27;91892;-69
2023/04/23 14:00:07;;;;;;;2.00;1.37;;;;;;;;;;5101054;27;92112;-68
2023/04/23 14:02:35;;;;;;;2.97;1.70;;;;;;;;;;5080621;27;93094;-68
2023/04/23 14:05:05;;;;;;;5.37;1.47;;;;;;;;;;5099817;27;93645;-68
2023/04/23 14:07:33;;;;;;;1.53;1.10;;;;;;;;;;5100852;27;92089;-68
2023/04/23 14:10:02;;;;;;;1.40;1.30;;;;;;;;;;5102065;27;92113;-71
2023/04/23 14:12:31;;;;;;;3.17;1.27;;;;;;;;;;5094988;27;95274;-68
2023/04/23 14:15:00;;;;;;;1.57;1.13;;;;;;;;;;5091285;27;94807;-68
2023/04/23 14:17:28;;;;;;;1.43;1.23;;;;;;;;;;5100952;27;92095;-68
2023/04/23 14:19:57;;;;;;;2.80;1.37;;;;;;;;;;5100910;27;92142;-68
2023/04/23 14:22:25;;;;;;;1.97;0.97;;;;;;;;;;5100986;27;94018;-68
2023/04/23 14:24:56;;;;;;;1.63;1.30;;;;;;;;;;5095932;27;93837;-70
2023/04/23 14:27:25;;;;;;;1.77;1.47;;;;;;;;;;5099014;27;91770;-69
2023/04/23 14:29:57;;;;;;;1.30;1.20;;;;;;;;;;5108202;27;91017;-69
2023/04/23 14:32:25;;;;;;;2.70;1.90;;;;;;;;;;5097465;27;96164;-69
2023/04/23 14:34:54;;;;;;;1.30;1.20;;;;;;;;;;5094354;27;92999;-68
2023/04/23 14:37:22;;;;;;;1.00;0.90;;;;;;;;;;5099567;27;93014;-68
2023/04/23 14:39:50;;;;;;;4.17;1.53;;;;;;;;;;5079586;27;91994;-69
2023/04/23 14:42:19;;;;;;;2.60;1.53;;;;;;;;;;5079595;27;94174;-69
2023/04/23 14:44:47;;;;;;;2.13;1.27;;;;;;;;;;5111594;27;93841;-67
2023/04/23 14:47:17;;;;;;;8.80;1.10;;;;;;;;;;5100693;27;92178;-67
2023/04/23 14:49:46;;;;;;;1.60;1.20;;;;;;;;;;5100725;27;92628;-73
2023/04/23 14:52:14;;;;;;;1.70;1.20;;;;;;;;;;5100797;27;93481;-68
2023/04/23 14:54:43;;;;;;;1.10;1.00;;;;;;;;;;5085997;27;93885;-66